メインページ
METAR-TAF:

METAR-TAF

空港 :

Guaymas, メキシコ

緯度: 27-58N, 経度: 110-56W, 海抜: 27m

現時点の気象観測

当レポートは2時間2分前の01:43(UTC)に作成
南西の風 8kt
気温 24°C
湿度 36%
気圧 1014 hPa
視程: 16.1km
晴天

METAR: MMGM 250143Z 23008KT 10SM SKC 24/08 A2995

時間: 20:45 (03:45 UTC)

予報

当レポートは11時間10分前の16:35(UTC)に作成
予報は24日の 18時(UTC)から 25日の 18時(UTC)まで有効
西/南西の風 6kt
視程: 10km
晴天
24日の 20時(UTC)から 24日の 21時(UTC)まで徐々に
西/南西の風 12kt
25日の 0200時(UTC)から
北西の風 5kt
視程: 10km
高度25000ftの雲は散在している
25日の 05時(UTC)から 25日の 06時(UTC)まで徐々に
の風 kt
25日の 1200時(UTC)から
北西の風 5kt
視程: 10km
高度25000ftの千切れ雲あり

TAF: MMGM 241635Z 2418/2518 25006KT P6SM SKC BECMG 2420/2421 25012KT FM250200 32005KT P6SM SCT250 BECMG 2505/2506 00000KT FM251200 32005KT P6SM BKN250

4,000以上の空港の気象観測と天気予報(METAR報とTAF報)

利用可能な観測所は地図上に黄色い丸と赤い丸で示す。

丸の上にカーソルを重ねると観測所名を参照できる。

次にクリックすると気象観測と天気予報を参照できる。

マップの切り替え:黒色「×」印の緑ボタンをクリックして拡大、「-」印の緑ボタンをクリックして縮小、緑色の三角印をクリックして隣りの地図に切り替え


METAR-TAF: